createdAt,value
2022-10-28T00:00:25.203Z,16.08
2022-10-28T00:01:25.261Z,16.08
2022-10-28T00:02:26.232Z,16.08
2022-10-28T00:03:25.307Z,16.07
2022-10-28T00:04:25.220Z,16.04
2022-10-28T00:05:24.933Z,16.06
2022-10-28T00:06:25.696Z,16.04
2022-10-28T00:07:25.090Z,16.03
2022-10-28T00:08:25.010Z,16.03
2022-10-28T00:09:25.065Z,16.03
2022-10-28T00:10:26.292Z,16.03
2022-10-28T00:11:47.902Z,16.03
2022-10-28T00:12:25.763Z,15.99
2022-10-28T00:13:26.307Z,16.01
2022-10-28T00:14:25.235Z,15.99
2022-10-28T00:15:25.275Z,15.99
2022-10-28T00:16:24.965Z,15.98
2022-10-28T00:18:25.150Z,15.98
2022-10-28T00:19:26.225Z,15.96
2022-10-28T00:20:24.769Z,15.95
2022-10-28T00:21:24.703Z,15.96
2022-10-28T00:22:24.706Z,15.96
2022-10-28T00:23:24.922Z,15.95
2022-10-28T00:24:24.945Z,15.93
2022-10-28T00:25:25.002Z,15.92
2022-10-28T00:26:24.848Z,15.92
2022-10-28T00:27:24.816Z,15.92
2022-10-28T00:28:25.564Z,15.86
2022-10-28T00:29:24.643Z,15.86
2022-10-28T00:30:24.650Z,15.85
2022-10-28T00:31:24.791Z,15.86
2022-10-28T00:32:24.916Z,15.86
2022-10-28T00:33:24.673Z,15.86
2022-10-28T00:34:24.743Z,15.88
2022-10-28T00:35:24.545Z,15.88
2022-10-28T00:36:24.492Z,15.88
2022-10-28T00:37:24.725Z,15.88
2022-10-28T00:38:24.602Z,15.88
2022-10-28T00:39:24.493Z,15.88
2022-10-28T00:40:24.736Z,15.88
2022-10-28T00:41:24.816Z,15.89
2022-10-28T00:42:24.412Z,15.88
2022-10-28T00:43:24.324Z,15.86
2022-10-28T00:44:24.431Z,15.85
2022-10-28T00:45:24.639Z,15.85
2022-10-28T00:46:24.574Z,15.80
2022-10-28T00:47:24.595Z,15.80
2022-10-28T00:48:24.358Z,15.81
2022-10-28T00:49:24.344Z,15.80
2022-10-28T00:50:24.422Z,15.78
2022-10-28T00:51:24.486Z,15.78
2022-10-28T00:52:24.332Z,15.80
2022-10-28T00:53:24.601Z,15.81
2022-10-28T00:54:24.468Z,15.81
2022-10-28T00:55:24.283Z,15.84
2022-10-28T00:57:24.536Z,15.84
2022-10-28T00:58:24.279Z,15.84
2022-10-28T00:59:24.334Z,15.85
2022-10-28T01:00:24.329Z,15.85
2022-10-28T01:01:24.473Z,15.85
2022-10-28T01:02:24.380Z,15.86
2022-10-28T01:03:24.382Z,15.86
2022-10-28T01:04:24.641Z,15.86
2022-10-28T01:05:24.312Z,15.86
2022-10-28T01:06:24.328Z,15.86
2022-10-28T01:07:24.676Z,15.85
2022-10-28T01:08:24.178Z,15.84
2022-10-28T01:10:24.072Z,15.81
2022-10-28T01:11:24.211Z,15.84
2022-10-28T01:12:24.318Z,15.84
2022-10-28T01:13:23.947Z,15.84
2022-10-28T01:14:24.322Z,15.84
2022-10-28T01:15:24.028Z,15.84
2022-10-28T01:16:24.339Z,15.84
2022-10-28T01:17:24.078Z,15.84
2022-10-28T01:18:24.040Z,15.84
2022-10-28T01:19:24.482Z,15.81
2022-10-28T01:20:24.073Z,15.84
2022-10-28T01:21:24.050Z,15.84
2022-10-28T01:22:24.061Z,15.84
2022-10-28T01:23:23.969Z,15.81
2022-10-28T01:24:24.001Z,15.81
2022-10-28T01:25:24.973Z,15.81
2022-10-28T01:26:23.936Z,15.80
2022-10-28T01:27:24.155Z,15.78
2022-10-28T01:28:23.900Z,15.77
2022-10-28T01:29:24.304Z,15.76
2022-10-28T01:30:23.990Z,15.73
2022-10-28T01:31:23.768Z,15.68
2022-10-28T01:32:23.879Z,15.64
2022-10-28T01:33:23.751Z,15.62
2022-10-28T01:34:23.764Z,15.60
2022-10-28T01:35:24.886Z,15.60
2022-10-28T01:36:24.946Z,15.59
2022-10-28T01:37:24.699Z,15.59
2022-10-28T01:38:23.871Z,15.59
2022-10-28T01:39:24.079Z,15.60
2022-10-28T01:40:24.022Z,15.60
2022-10-28T01:41:23.741Z,15.60
2022-10-28T01:42:23.688Z,15.60
2022-10-28T01:43:23.721Z,15.60
2022-10-28T01:44:23.607Z,15.62
2022-10-28T01:45:24.641Z,15.62
2022-10-28T01:46:24.033Z,15.64
2022-10-28T01:47:23.768Z,15.64
2022-10-28T01:48:23.518Z,15.64
2022-10-28T01:49:24.434Z,15.66
2022-10-28T01:50:23.578Z,15.66
2022-10-28T01:51:23.644Z,15.64
2022-10-28T01:52:23.497Z,15.67
2022-10-28T01:53:23.533Z,15.66
2022-10-28T01:54:23.716Z,15.67
2022-10-28T01:55:23.757Z,15.67
2022-10-28T01:56:23.612Z,15.66
2022-10-28T01:57:24.305Z,15.64
2022-10-28T01:58:24.426Z,15.64
2022-10-28T01:59:23.488Z,15.60
2022-10-28T02:00:23.592Z,15.62
2022-10-28T02:01:23.557Z,15.60
2022-10-28T02:02:23.604Z,15.59
2022-10-28T02:03:23.529Z,15.59
2022-10-28T02:04:24.278Z,15.56
2022-10-28T02:05:23.666Z,15.56
2022-10-28T02:06:24.663Z,15.55
2022-10-28T02:07:23.382Z,15.53
2022-10-28T02:08:23.369Z,15.55
2022-10-28T02:09:23.625Z,15.55
2022-10-28T02:10:23.456Z,15.55
2022-10-28T02:11:24.194Z,15.53
2022-10-28T02:12:23.305Z,15.53
2022-10-28T02:13:23.546Z,15.52
2022-10-28T02:14:23.395Z,15.52
2022-10-28T02:15:24.016Z,15.51
2022-10-28T02:16:23.332Z,15.52
2022-10-28T02:17:23.435Z,15.52
2022-10-28T02:18:23.240Z,15.49
2022-10-28T02:19:23.676Z,15.49
2022-10-28T02:20:23.152Z,15.51
2022-10-28T02:21:23.936Z,15.49
2022-10-28T02:22:23.065Z,15.48
2022-10-28T02:23:23.311Z,15.46
2022-10-28T02:24:23.207Z,15.48
2022-10-28T02:25:23.288Z,15.46
2022-10-28T02:26:23.003Z,15.43
2022-10-28T02:27:23.145Z,15.40
2022-10-28T02:28:22.972Z,15.37
2022-10-28T02:29:23.273Z,15.33
2022-10-28T02:30:23.893Z,15.30
2022-10-28T02:31:22.939Z,15.25
2022-10-28T02:32:23.023Z,15.23
2022-10-28T02:33:23.241Z,15.20
2022-10-28T02:34:23.163Z,15.20
2022-10-28T02:35:22.828Z,15.19
2022-10-28T02:36:22.969Z,15.19
2022-10-28T02:37:24.052Z,15.18
2022-10-28T02:38:23.729Z,15.18
2022-10-28T02:39:22.857Z,15.16
2022-10-28T02:40:23.104Z,15.16
2022-10-28T02:41:23.021Z,15.15
2022-10-28T02:42:22.962Z,15.18
2022-10-28T02:43:22.906Z,15.18
2022-10-28T02:44:23.274Z,15.16
2022-10-28T02:45:22.856Z,15.16
2022-10-28T02:46:22.843Z,15.18
2022-10-28T02:47:22.890Z,15.18
2022-10-28T02:48:22.875Z,15.15
2022-10-28T02:49:22.752Z,15.16
2022-10-28T02:50:22.667Z,15.15
2022-10-28T02:51:22.783Z,15.13
2022-10-28T02:52:22.756Z,15.15
2022-10-28T02:53:22.853Z,15.13
2022-10-28T02:54:22.630Z,15.12
2022-10-28T02:55:22.680Z,15.11
2022-10-28T02:56:22.778Z,15.11
2022-10-28T02:57:22.821Z,15.11
2022-10-28T02:58:22.490Z,15.11
2022-10-28T02:59:22.670Z,15.11
2022-10-28T03:00:22.750Z,15.09
2022-10-28T03:01:22.716Z,15.09
2022-10-28T03:02:22.706Z,15.09
2022-10-28T03:03:22.498Z,15.09
2022-10-28T03:04:22.608Z,15.07
2022-10-28T03:05:22.995Z,15.07
2022-10-28T03:06:22.647Z,15.05
2022-10-28T03:07:22.589Z,15.05
2022-10-28T03:08:22.686Z,15.05
2022-10-28T03:09:22.530Z,15.04
2022-10-28T03:10:22.448Z,15.05
2022-10-28T03:11:22.522Z,15.05
2022-10-28T03:12:22.532Z,15.04
2022-10-28T03:13:22.581Z,15.03
2022-10-28T03:14:22.442Z,15.03
2022-10-28T03:15:22.355Z,15.01
2022-10-28T03:16:22.488Z,15.01
2022-10-28T03:17:22.418Z,15.01
2022-10-28T03:18:22.599Z,15.01
2022-10-28T03:19:23.252Z,15.00
2022-10-28T03:20:22.476Z,14.98
2022-10-28T03:21:22.284Z,14.97
2022-10-28T03:22:22.291Z,14.97
2022-10-28T03:23:22.592Z,14.97
2022-10-28T03:24:22.347Z,14.94
2022-10-28T03:25:22.299Z,14.93
2022-10-28T03:26:22.228Z,14.91
2022-10-28T03:27:23.216Z,14.87
2022-10-28T03:28:22.278Z,14.86
2022-10-28T03:29:22.513Z,14.85
2022-10-28T03:30:22.250Z,14.85
2022-10-28T03:31:22.239Z,14.83
2022-10-28T03:33:22.036Z,14.79
2022-10-28T03:34:22.218Z,14.75
2022-10-28T03:35:22.281Z,14.74
2022-10-28T03:36:22.190Z,14.72
2022-10-28T03:37:22.069Z,14.72
2022-10-28T03:38:22.403Z,14.67
2022-10-28T03:39:23.262Z,14.67
2022-10-28T03:40:22.265Z,14.64
2022-10-28T03:41:22.188Z,14.64
2022-10-28T03:42:21.991Z,14.63
2022-10-28T03:43:22.128Z,14.61
2022-10-28T03:44:22.019Z,14.61
2022-10-28T03:45:22.353Z,14.61
2022-10-28T03:46:22.223Z,14.61
2022-10-28T03:47:21.991Z,14.60
2022-10-28T03:48:21.914Z,14.59
2022-10-28T03:49:22.244Z,14.59
2022-10-28T03:50:21.852Z,14.57
2022-10-28T03:51:22.011Z,14.57
2022-10-28T03:52:22.231Z,14.57
2022-10-28T03:53:22.105Z,14.57
2022-10-28T03:54:22.156Z,14.56
2022-10-28T03:55:21.915Z,14.54
2022-10-28T03:56:21.846Z,14.54
2022-10-28T03:57:22.846Z,14.52
2022-10-28T03:58:21.897Z,14.52
2022-10-28T03:59:22.001Z,14.52
2022-10-28T04:00:21.948Z,14.52
2022-10-28T04:01:22.009Z,14.52
2022-10-28T04:02:22.144Z,14.48
2022-10-28T04:03:22.079Z,14.49
2022-10-28T04:04:21.678Z,14.48
2022-10-28T04:05:22.170Z,14.49
2022-10-28T04:06:21.890Z,14.49
2022-10-28T04:07:21.951Z,14.48
2022-10-28T04:08:22.373Z,14.46
2022-10-28T04:09:21.683Z,14.46
2022-10-28T04:10:22.925Z,14.49
2022-10-28T04:11:21.744Z,14.46
2022-10-28T04:12:21.858Z,14.46
2022-10-28T04:13:21.672Z,14.42
2022-10-28T04:14:22.769Z,14.44
2022-10-28T04:15:21.715Z,14.42
2022-10-28T04:16:22.678Z,14.42
2022-10-28T04:17:21.617Z,14.41
2022-10-28T04:18:22.036Z,14.42
2022-10-28T04:19:21.582Z,14.42
2022-10-28T04:20:22.471Z,14.41
2022-10-28T04:21:21.707Z,14.41
2022-10-28T04:22:22.430Z,14.39
2022-10-28T04:23:21.587Z,14.38
2022-10-28T04:24:21.474Z,14.39
2022-10-28T04:25:21.483Z,14.36
2022-10-28T04:26:21.490Z,14.36
2022-10-28T04:27:21.487Z,14.36
2022-10-28T04:28:21.396Z,14.35
2022-10-28T04:29:21.702Z,14.34
2022-10-28T04:30:21.618Z,14.31
2022-10-28T04:31:21.623Z,14.30
2022-10-28T04:32:21.506Z,14.30
2022-10-28T04:33:21.335Z,14.29
2022-10-28T04:34:21.493Z,14.26
2022-10-28T04:35:21.702Z,14.24
2022-10-28T04:36:22.320Z,14.24
2022-10-28T04:37:22.532Z,14.23
2022-10-28T04:38:21.438Z,14.21
2022-10-28T04:39:21.906Z,14.21
2022-10-28T04:40:21.486Z,14.20
2022-10-28T04:41:21.516Z,14.19
2022-10-28T04:42:21.474Z,14.17
2022-10-28T04:43:21.277Z,14.17
2022-10-28T04:44:21.566Z,14.13
2022-10-28T04:45:21.376Z,14.11
2022-10-28T04:46:21.654Z,14.11
2022-10-28T04:47:21.377Z,14.09
2022-10-28T04:48:21.253Z,14.08
2022-10-28T04:49:21.165Z,14.09
2022-10-28T04:50:21.688Z,14.05
2022-10-28T04:51:21.503Z,14.06
2022-10-28T04:52:21.288Z,14.06
2022-10-28T04:53:21.237Z,14.04
2022-10-28T04:54:21.043Z,14.06
2022-10-28T04:55:21.176Z,14.05
2022-10-28T04:56:21.288Z,14.04
2022-10-28T04:57:22.220Z,14.04
2022-10-28T04:58:21.474Z,14.02
2022-10-28T04:59:20.908Z,14.02
2022-10-28T05:00:21.472Z,14.01
2022-10-28T05:01:21.365Z,13.99
2022-10-28T05:02:21.436Z,13.99
2022-10-28T05:03:21.110Z,13.99
2022-10-28T05:04:21.216Z,13.98
2022-10-28T05:05:21.130Z,13.94
2022-10-28T05:06:22.220Z,13.91
2022-10-28T05:07:23.577Z,13.90
2022-10-28T05:08:21.825Z,13.88
2022-10-28T05:09:21.028Z,13.88
2022-10-28T05:10:20.861Z,13.86
2022-10-28T05:11:21.068Z,13.86
2022-10-28T05:12:21.822Z,13.86
2022-10-28T05:13:21.157Z,13.86
2022-10-28T05:14:21.121Z,13.84
2022-10-28T05:15:20.851Z,13.84
2022-10-28T05:16:21.020Z,13.84
2022-10-28T05:17:21.495Z,13.84
2022-10-28T05:18:21.011Z,13.84
2022-10-28T05:19:21.038Z,13.84
2022-10-28T05:20:21.399Z,13.83
2022-10-28T05:21:21.023Z,13.84
2022-10-28T05:22:21.462Z,13.83
2022-10-28T05:23:20.809Z,13.83
2022-10-28T05:24:21.072Z,13.81
2022-10-28T05:25:21.890Z,13.83
2022-10-28T05:26:20.864Z,13.81
2022-10-28T05:27:21.185Z,13.81
2022-10-28T05:28:20.754Z,13.81
2022-10-28T05:29:20.720Z,13.81
2022-10-28T05:30:20.994Z,13.81
2022-10-28T05:31:20.789Z,13.83
2022-10-28T05:32:20.701Z,13.80
2022-10-28T05:33:21.065Z,13.81
2022-10-28T05:34:20.529Z,13.81
2022-10-28T05:35:20.638Z,13.81
2022-10-28T05:36:22.690Z,13.81
2022-10-28T05:37:21.087Z,13.81
2022-10-28T05:38:20.609Z,13.80
2022-10-28T05:39:20.498Z,13.80
2022-10-28T05:40:20.924Z,13.79
2022-10-28T05:41:23.115Z,13.80
2022-10-28T05:42:20.593Z,13.80
2022-10-28T05:43:20.578Z,13.80
2022-10-28T05:44:20.827Z,13.79
2022-10-28T05:45:20.874Z,13.80
2022-10-28T05:46:21.589Z,13.79
2022-10-28T05:47:20.480Z,13.76
2022-10-28T05:48:21.058Z,13.79
2022-10-28T05:49:20.496Z,13.76
2022-10-28T05:50:20.731Z,13.76
2022-10-28T05:51:20.641Z,13.79
2022-10-28T05:52:20.846Z,13.76
2022-10-28T05:53:21.241Z,13.73
2022-10-28T05:54:20.838Z,13.75
2022-10-28T05:55:21.457Z,13.75
2022-10-28T05:56:20.452Z,13.75
2022-10-28T05:57:20.883Z,13.73
2022-10-28T05:58:20.473Z,13.73
2022-10-28T05:59:20.565Z,13.73
2022-10-28T06:00:21.780Z,13.72
2022-10-28T06:01:20.371Z,13.73
2022-10-28T06:02:20.681Z,13.73
2022-10-28T06:03:21.102Z,13.72
2022-10-28T06:04:20.435Z,13.72
2022-10-28T06:05:20.298Z,13.72
2022-10-28T06:06:20.714Z,13.72
2022-10-28T06:07:20.612Z,13.71
2022-10-28T06:08:20.794Z,13.72
2022-10-28T06:09:20.565Z,13.72
2022-10-28T06:10:20.342Z,13.72
2022-10-28T06:11:18.935Z,13.72
2022-10-28T06:12:18.808Z,13.73
2022-10-28T06:13:18.540Z,13.73
2022-10-28T06:14:18.757Z,13.75
2022-10-28T06:15:18.831Z,13.75
2022-10-28T06:16:18.645Z,13.75
2022-10-28T06:17:18.775Z,13.76
2022-10-28T06:18:19.133Z,13.75
2022-10-28T06:19:18.749Z,13.79
2022-10-28T06:20:18.428Z,13.79
2022-10-28T06:21:18.702Z,13.76
2022-10-28T06:22:18.888Z,13.76
2022-10-28T06:23:18.705Z,13.79
2022-10-28T06:24:18.553Z,13.79
2022-10-28T06:25:18.582Z,13.79
2022-10-28T06:26:18.376Z,13.80
2022-10-28T06:27:18.828Z,13.80
2022-10-28T06:28:18.522Z,13.80
2022-10-28T06:29:18.468Z,13.81
2022-10-28T06:30:18.329Z,13.83
2022-10-28T06:31:20.249Z,13.83
2022-10-28T06:32:18.320Z,13.84
2022-10-28T06:33:19.339Z,13.83
2022-10-28T06:34:19.354Z,13.83
2022-10-28T06:35:18.715Z,13.84
2022-10-28T06:36:18.415Z,13.86
2022-10-28T06:37:19.470Z,13.87
2022-10-28T06:38:18.991Z,13.87
2022-10-28T06:39:18.495Z,13.87
2022-10-28T06:40:18.537Z,13.90
2022-10-28T06:41:18.571Z,13.91
2022-10-28T06:42:18.500Z,13.94
2022-10-28T06:43:19.024Z,13.96
2022-10-28T06:44:20.244Z,13.98
2022-10-28T06:45:18.263Z,13.98
2022-10-28T06:46:18.008Z,13.99
2022-10-28T06:47:19.844Z,14.01
2022-10-28T06:48:20.032Z,14.02
2022-10-28T06:49:19.905Z,14.04
2022-10-28T06:50:20.061Z,14.05
2022-10-28T06:51:20.949Z,14.06
2022-10-28T06:52:19.871Z,14.09
2022-10-28T06:53:19.981Z,14.09
2022-10-28T06:54:19.643Z,14.11
2022-10-28T06:55:19.860Z,14.11
2022-10-28T06:56:19.758Z,14.16
2022-10-28T06:57:19.481Z,14.19
2022-10-28T06:58:19.517Z,14.20
2022-10-28T06:59:19.393Z,14.23
2022-10-28T07:00:19.345Z,14.27
2022-10-28T07:01:19.438Z,14.31
2022-10-28T07:02:19.546Z,14.38
2022-10-28T07:03:19.237Z,14.39
2022-10-28T07:04:19.261Z,14.42
2022-10-28T07:05:19.819Z,14.46
2022-10-28T07:06:19.496Z,14.53
2022-10-28T07:07:19.467Z,14.60
2022-10-28T07:08:19.356Z,14.63
2022-10-28T07:09:19.546Z,14.71
2022-10-28T07:10:19.356Z,14.74
2022-10-28T07:11:19.586Z,14.78
2022-10-28T07:12:19.283Z,14.82
2022-10-28T07:13:19.191Z,14.85
2022-10-28T07:14:19.175Z,14.87
2022-10-28T07:15:19.193Z,14.91
2022-10-28T07:16:19.221Z,14.95
2022-10-28T07:17:19.119Z,15.00
2022-10-28T07:18:19.192Z,15.05
2022-10-28T07:19:22.641Z,15.11
2022-10-28T07:20:19.380Z,15.15
2022-10-28T07:21:19.192Z,15.19
2022-10-28T07:22:22.421Z,15.20
2022-10-28T07:23:20.081Z,15.23
2022-10-28T07:24:19.468Z,15.27
2022-10-28T07:25:19.094Z,15.30
2022-10-28T07:26:19.127Z,15.31
2022-10-28T07:27:19.054Z,15.35
2022-10-28T07:28:19.066Z,15.40
2022-10-28T07:29:19.076Z,15.41
2022-10-28T07:30:18.992Z,15.41
2022-10-28T07:31:18.989Z,15.44
2022-10-28T07:32:19.146Z,15.48
2022-10-28T07:33:19.240Z,15.52
2022-10-28T07:34:21.114Z,15.56
2022-10-28T07:35:18.939Z,15.64
2022-10-28T07:36:18.853Z,15.76
2022-10-28T07:37:19.182Z,15.93
2022-10-28T07:38:19.111Z,16.07
2022-10-28T07:39:18.869Z,16.13
2022-10-28T07:40:18.917Z,16.25
2022-10-28T07:41:19.137Z,16.36
2022-10-28T07:42:18.985Z,16.41
2022-10-28T07:43:18.839Z,16.47
2022-10-28T07:44:18.819Z,16.54
2022-10-28T07:45:18.810Z,16.57
2022-10-28T07:46:18.712Z,16.55
2022-10-28T07:47:18.774Z,16.54
2022-10-28T07:48:18.816Z,16.59
2022-10-28T07:49:18.737Z,16.66
2022-10-28T07:50:18.757Z,16.67
2022-10-28T07:51:20.586Z,16.75
2022-10-28T07:52:18.674Z,16.81
2022-10-28T07:53:18.839Z,16.90
2022-10-28T07:54:18.694Z,16.95
2022-10-28T07:55:19.034Z,17.03
2022-10-28T07:56:18.785Z,17.20
2022-10-28T07:57:18.684Z,17.32
2022-10-28T07:58:18.679Z,17.40
2022-10-28T07:59:21.886Z,17.47
2022-10-28T08:00:20.687Z,17.47
2022-10-28T08:01:20.688Z,17.47
2022-10-28T08:02:20.553Z,17.51
2022-10-28T08:03:20.596Z,17.60
2022-10-28T08:04:18.616Z,17.66
2022-10-28T08:05:18.621Z,17.73
2022-10-28T08:06:19.345Z,17.77
2022-10-28T08:07:18.929Z,17.83
2022-10-28T08:08:18.436Z,17.86
2022-10-28T08:09:18.424Z,17.86
2022-10-28T08:10:18.481Z,17.86
2022-10-28T08:11:18.724Z,17.87
2022-10-28T08:12:18.951Z,17.84
2022-10-28T08:13:18.766Z,17.84
2022-10-28T08:14:18.515Z,17.84
2022-10-28T08:15:19.174Z,17.84
2022-10-28T08:16:18.791Z,17.87
2022-10-28T08:17:18.551Z,17.91
2022-10-28T08:18:18.885Z,17.94
2022-10-28T08:19:18.680Z,17.94
2022-10-28T08:20:18.260Z,17.94
2022-10-28T08:21:18.536Z,17.92
2022-10-28T08:22:18.271Z,17.94
2022-10-28T08:23:18.733Z,17.95
2022-10-28T08:24:18.430Z,17.96
2022-10-28T08:25:18.483Z,17.96
2022-10-28T08:26:18.924Z,17.96
2022-10-28T08:27:18.587Z,17.99
2022-10-28T08:28:19.199Z,18.02
2022-10-28T08:29:18.382Z,18.05
2022-10-28T08:30:18.230Z,18.07
2022-10-28T08:31:18.303Z,18.14
2022-10-28T08:32:18.393Z,18.16
2022-10-28T08:33:18.202Z,18.17
2022-10-28T08:34:23.556Z,18.17
2022-10-28T08:35:20.738Z,18.19
2022-10-28T08:36:18.294Z,18.20
2022-10-28T08:37:18.376Z,18.25
2022-10-28T08:38:18.493Z,18.26
2022-10-28T08:39:18.364Z,18.28
2022-10-28T08:40:18.246Z,18.29
2022-10-28T08:41:20.501Z,18.31
2022-10-28T08:42:19.384Z,18.34
2022-10-28T08:43:20.738Z,18.34
2022-10-28T08:44:19.532Z,18.36
2022-10-28T08:45:17.931Z,18.39
2022-10-28T08:46:18.450Z,18.42
2022-10-28T08:47:18.293Z,18.44
2022-10-28T08:48:18.165Z,18.46
2022-10-28T08:49:20.793Z,18.47
2022-10-28T08:50:17.934Z,18.51
2022-10-28T08:51:18.014Z,18.54
2022-10-28T08:52:19.280Z,18.59
2022-10-28T08:53:24.856Z,18.65
2022-10-28T08:54:18.093Z,18.71
2022-10-28T08:55:19.134Z,18.75
2022-10-28T09:01:04.306Z,18.87
2022-10-28T09:03:39.337Z,18.96
2022-10-28T09:04:44.957Z,19.01
2022-10-28T09:05:36.463Z,19.06
2022-10-28T09:06:35.970Z,19.07
2022-10-28T09:12:35.696Z,19.31
2022-10-28T09:13:32.458Z,19.34
2022-10-28T09:14:35.146Z,19.42
2022-10-28T09:15:33.085Z,19.45
2022-10-28T09:16:33.501Z,19.46
2022-10-28T09:17:32.435Z,19.45
2022-10-28T09:18:31.892Z,19.46
2022-10-28T09:19:33.405Z,19.50
2022-10-28T09:20:33.423Z,19.55
2022-10-28T09:21:33.310Z,19.60
2022-10-28T09:22:33.016Z,19.64
2022-10-28T09:23:32.763Z,19.68
2022-10-28T09:24:31.989Z,19.72
2022-10-28T09:25:31.676Z,19.75
2022-10-28T09:26:32.790Z,19.79
2022-10-28T09:27:35.395Z,19.80
2022-10-28T09:28:44.623Z,19.83
2022-10-28T09:29:32.164Z,19.89
2022-10-28T09:30:32.601Z,19.92
2022-10-28T09:31:31.262Z,19.94
2022-10-28T09:32:56.085Z,20.05
2022-10-28T09:33:32.860Z,20.19
2022-10-28T09:34:32.522Z,20.33
2022-10-28T09:35:35.961Z,20.42
2022-10-28T09:36:31.425Z,20.51
2022-10-28T09:38:59.497Z,20.68
2022-10-28T09:39:49.343Z,20.72
2022-10-28T09:40:49.093Z,20.71
2022-10-28T09:41:51.986Z,20.72
2022-10-28T09:42:51.548Z,20.72
2022-10-28T09:43:51.708Z,20.73
2022-10-28T09:44:48.394Z,20.71
2022-10-28T09:45:48.151Z,20.69
2022-10-28T09:46:48.188Z,20.75
2022-10-28T09:49:48.819Z,20.76
2022-10-28T09:50:43.488Z,20.73
2022-10-28T09:51:42.240Z,20.73
2022-10-28T09:52:42.163Z,20.78
2022-10-28T09:53:41.816Z,20.81
2022-10-28T09:54:42.425Z,20.82
2022-10-28T09:55:42.322Z,20.82
2022-10-28T09:56:47.465Z,20.82
2022-10-28T09:57:41.929Z,20.79
2022-10-28T09:58:41.666Z,20.76
2022-10-28T09:59:43.190Z,20.79
2022-10-28T10:00:42.276Z,20.85
2022-10-28T10:01:42.473Z,20.96
2022-10-28T10:02:42.320Z,21.09
2022-10-28T10:03:41.472Z,21.19
2022-10-28T10:04:41.763Z,21.24
2022-10-28T10:05:57.282Z,21.26
2022-10-28T10:06:47.857Z,21.28
2022-10-28T10:07:42.794Z,21.24
2022-10-28T10:08:41.597Z,21.18
2022-10-28T10:09:41.879Z,21.16
2022-10-28T10:10:42.804Z,21.18
2022-10-28T10:11:42.746Z,21.18
2022-10-28T10:12:41.692Z,21.15
2022-10-28T10:15:43.421Z,21.21
2022-10-28T10:16:47.672Z,21.26
2022-10-28T10:17:44.201Z,21.30
2022-10-28T10:18:42.518Z,21.30
2022-10-28T10:19:41.829Z,21.30
2022-10-28T10:20:43.328Z,21.27
2022-10-28T10:21:41.768Z,21.26
2022-10-28T10:22:41.744Z,21.27
2022-10-28T10:23:45.469Z,21.28
2022-10-28T10:24:41.905Z,21.30
2022-10-28T10:25:41.709Z,21.28
2022-10-28T10:26:42.012Z,21.31
2022-10-28T10:27:43.059Z,21.33
2022-10-28T10:28:42.491Z,21.34
2022-10-28T10:29:41.722Z,21.37
2022-10-28T10:30:42.125Z,21.40
2022-10-28T10:31:46.579Z,21.40
2022-10-28T10:32:45.092Z,21.46
2022-10-28T10:33:48.523Z,21.51
2022-10-28T10:34:42.829Z,21.55
2022-10-28T10:35:41.688Z,21.63
2022-10-28T10:36:41.842Z,21.66
2022-10-28T10:37:44.332Z,21.67
2022-10-28T10:38:49.884Z,21.68
2022-10-28T10:39:41.866Z,21.67
2022-10-28T10:46:17.727Z,21.61
2022-10-28T10:47:30.767Z,21.59
2022-10-28T10:48:13.561Z,21.59
2022-10-28T10:49:18.735Z,21.66
2022-10-28T10:50:13.590Z,21.73
2022-10-28T10:51:14.427Z,21.77
2022-10-28T10:52:15.936Z,21.81
2022-10-28T10:53:35.240Z,21.85
2022-10-28T10:54:14.253Z,21.89
2022-10-28T10:55:14.787Z,21.98
2022-10-28T10:56:17.004Z,21.99
2022-10-28T10:57:16.588Z,22.04
2022-10-28T10:58:15.615Z,22.06
2022-10-28T10:59:17.873Z,22.08
2022-10-28T11:00:14.005Z,22.09
2022-10-28T11:01:13.213Z,22.11
2022-10-28T11:02:14.187Z,22.19
2022-10-28T11:03:13.327Z,22.20
2022-10-28T11:04:14.027Z,22.21
2022-10-28T11:05:16.157Z,22.29
2022-10-28T11:06:29.500Z,22.41
2022-10-28T11:07:16.302Z,22.49
2022-10-28T11:08:14.603Z,22.56
2022-10-28T11:10:14.206Z,22.64
2022-10-28T11:11:18.395Z,22.70
2022-10-28T11:12:13.427Z,22.79
2022-10-28T11:13:13.962Z,22.97
2022-10-28T11:15:34.714Z,23.15
2022-10-28T11:16:36.228Z,23.11
2022-10-28T11:18:49.221Z,23.06
2022-10-28T11:19:57.505Z,23.07
2022-10-28T11:22:58.615Z,23.01
2022-10-28T11:23:25.631Z,22.97
2022-10-28T11:24:22.363Z,22.93
2022-10-28T11:25:22.014Z,22.88
2022-10-28T11:26:23.070Z,22.85
2022-10-28T11:27:22.568Z,22.86
2022-10-28T11:28:23.083Z,22.82
2022-10-28T11:29:34.842Z,22.79
2022-10-28T11:30:22.231Z,22.76
2022-10-28T11:31:22.414Z,22.72
2022-10-28T11:32:22.038Z,22.67
2022-10-28T11:38:45.543Z,22.70
2022-10-28T11:39:12.590Z,22.70
2022-10-28T11:40:14.464Z,22.67
2022-10-28T11:43:04.989Z,22.69
2022-10-28T11:44:03.811Z,22.70
2022-10-28T11:44:56.668Z,22.72
2022-10-28T11:45:56.520Z,22.69
2022-10-28T11:47:02.455Z,22.63
2022-10-28T11:47:53.226Z,22.63
2022-10-28T11:48:51.486Z,22.60
2022-10-28T11:50:01.518Z,22.61
2022-10-28T11:51:00.593Z,22.61
2022-10-28T11:53:39.764Z,22.63
2022-10-28T11:54:11.171Z,22.66
2022-10-28T11:55:14.062Z,22.67
2022-10-28T11:57:30.437Z,22.78
2022-10-28T11:58:15.101Z,22.85
2022-10-28T12:10:25.533Z,23.09
2022-10-28T12:11:25.220Z,23.12
2022-10-28T12:12:36.294Z,23.11
2022-10-28T12:16:33.389Z,23.21
2022-10-28T12:17:30.669Z,23.23
2022-10-28T12:18:32.501Z,23.23
2022-10-28T12:19:28.229Z,23.23
2022-10-28T12:20:31.651Z,23.23
2022-10-28T12:24:16.333Z,23.29
2022-10-28T12:25:08.059Z,23.34
2022-10-28T12:26:08.131Z,23.34
2022-10-28T12:35:23.605Z,23.35
2022-10-28T12:36:23.231Z,23.29
2022-10-28T12:37:22.163Z,23.25
2022-10-28T12:38:22.080Z,23.25
2022-10-28T12:39:21.753Z,23.22
2022-10-28T12:40:21.805Z,23.22
2022-10-28T12:41:21.674Z,23.25
2022-10-28T12:42:22.823Z,23.31
2022-10-28T12:43:21.981Z,23.35
2022-10-28T12:44:22.394Z,23.37
2022-10-28T12:45:22.188Z,23.38
2022-10-28T12:46:21.615Z,23.41
2022-10-28T12:47:21.896Z,23.32
2022-10-28T12:48:21.648Z,23.29
2022-10-28T12:49:23.664Z,23.26
2022-10-28T12:50:21.804Z,23.31
2022-10-28T12:51:22.064Z,23.32
2022-10-28T12:52:22.866Z,23.35
2022-10-28T12:53:22.472Z,23.38
2022-10-28T12:54:21.575Z,23.37
2022-10-28T12:55:22.110Z,23.44
2022-10-28T12:56:22.246Z,23.47
2022-10-28T12:57:21.684Z,23.53
2022-10-28T12:58:21.900Z,23.54
2022-10-28T12:59:21.744Z,23.57
2022-10-28T13:00:21.572Z,23.63
2022-10-28T13:01:22.823Z,23.68
2022-10-28T13:02:22.294Z,23.67
2022-10-28T13:03:22.027Z,23.63
2022-10-28T13:04:21.637Z,23.59
2022-10-28T13:05:21.665Z,23.52
2022-10-28T13:06:21.456Z,23.50
2022-10-28T13:07:21.439Z,23.45
2022-10-28T13:08:21.568Z,23.42
2022-10-28T13:09:21.327Z,23.38
2022-10-28T13:10:24.247Z,23.35
2022-10-28T13:11:21.392Z,23.35
2022-10-28T13:12:21.524Z,23.35
2022-10-28T13:13:21.811Z,23.35
2022-10-28T13:14:21.595Z,23.35
2022-10-28T13:15:21.335Z,23.34
2022-10-28T13:16:21.777Z,23.32
2022-10-28T13:17:21.288Z,23.32
2022-10-28T13:18:21.474Z,23.34
2022-10-28T13:19:21.591Z,23.34
2022-10-28T13:20:21.263Z,23.35
2022-10-28T13:21:21.178Z,23.34
2022-10-28T13:22:21.395Z,23.31
2022-10-28T13:23:21.413Z,23.34
2022-10-28T13:24:21.603Z,23.35
2022-10-28T13:25:21.796Z,23.35
2022-10-28T13:26:21.200Z,23.38
2022-10-28T13:27:21.658Z,23.38
2022-10-28T13:28:21.191Z,23.39
2022-10-28T13:29:21.176Z,23.37
2022-10-28T13:30:21.056Z,23.39
2022-10-28T13:31:21.144Z,23.39
2022-10-28T13:32:21.918Z,23.41
2022-10-28T13:33:21.765Z,23.44
2022-10-28T13:34:21.233Z,23.45
2022-10-28T13:35:21.016Z,23.47
2022-10-28T13:36:21.029Z,23.49
2022-10-28T13:37:21.314Z,23.49
2022-10-28T13:38:21.020Z,23.50
2022-10-28T13:39:21.025Z,23.47
2022-10-28T13:40:21.032Z,23.50
2022-10-28T13:41:21.019Z,23.50
2022-10-28T13:42:21.376Z,23.49
2022-10-28T13:43:21.006Z,23.49
2022-10-28T13:44:21.056Z,23.49
2022-10-28T13:45:21.190Z,23.50
2022-10-28T13:46:20.974Z,23.47
2022-10-28T13:47:21.147Z,23.47
2022-10-28T13:48:20.809Z,23.47
2022-10-28T13:49:21.370Z,23.47
2022-10-28T13:50:21.144Z,23.45
2022-10-28T13:51:20.743Z,23.49
2022-10-28T13:52:20.807Z,23.49
2022-10-28T13:53:20.780Z,23.49
2022-10-28T13:54:20.773Z,23.47
2022-10-28T13:55:20.877Z,23.47
2022-10-28T13:56:21.150Z,23.47
2022-10-28T13:57:21.199Z,23.45